Time;durP1;ratioP1;P1;durP2;ratioP2;P2;SDS_P1;SDS_P2;PMS_P1;PMS_P2;Temp;Humidity;BMP_temperature;BMP_pressure;BME280_temperature;BME280_humidity;BME280_pressure;Samples;Min_cycle;Max_cycle;Signal;HPM_P1;HPM_P2
2021/12/13 00:00:40;;;;;;;157.82;129.05;;;11.20;99.90;;;;;;5077553;28;20057;-76
2021/12/13 00:03:14;;;;;;;157.45;129.57;;;11.20;99.90;;;;;;5077657;28;20048;-76
2021/12/13 00:05:46;;;;;;;162.73;129.35;;;11.20;99.90;;;;;;5060747;28;20078;-76
2021/12/13 00:08:18;;;;;;;148.00;122.25;;;11.20;99.90;;;;;;5077128;28;20118;-76
2021/12/13 00:10:49;;;;;;;147.63;125.30;;;11.20;99.90;;;;;;5077135;28;20040;-77
2021/12/13 00:13:19;;;;;;;153.40;125.47;;;11.20;99.90;;;;;;5060141;28;20044;-76
2021/12/13 00:15:52;;;;;;;146.30;123.78;;;11.20;99.90;;;;;;5060417;28;20044;-76
2021/12/13 00:18:24;;;;;;;143.23;126.90;;;11.20;99.90;;;;;;5076984;28;20110;-76
2021/12/13 00:20:57;;;;;;;146.57;125.72;;;11.20;99.90;;;;;;5076661;28;20130;-76
2021/12/13 00:23:27;;;;;;;139.48;123.43;;;11.20;99.90;;;;;;5095012;28;20122;-76
2021/12/13 00:25:58;;;;;;;136.23;120.32;;;11.10;99.90;;;;;;5095364;28;20061;-76
2021/12/13 00:28:27;;;;;;;137.73;122.60;;;11.10;99.90;;;;;;5075662;28;20138;-76
2021/12/13 00:31:04;;;;;;;139.38;123.63;;;11.10;99.90;;;;;;5076854;28;20049;-76
2021/12/13 00:33:39;;;;;;;140.90;123.07;;;11.10;99.90;;;;;;5077230;28;20056;-76
2021/12/13 00:36:17;;;;;;;141.65;122.93;;;11.10;99.90;;;;;;5077062;28;20053;-76
2021/12/13 00:38:51;;;;;;;140.18;125.05;;;11.10;99.90;;;;;;5095012;28;20048;-76
2021/12/13 00:41:22;;;;;;;150.85;127.32;;;11.10;99.90;;;;;;5076574;28;20056;-76
2021/12/13 00:43:53;;;;;;;142.60;124.32;;;11.20;99.90;;;;;;5076817;28;20407;-77
2021/12/13 00:46:25;;;;;;;141.48;124.13;;;11.20;99.90;;;;;;5076941;28;20056;-76
2021/12/13 00:48:55;;;;;;;147.85;126.03;;;11.20;99.90;;;;;;5076344;28;20048;-76
2021/12/13 00:51:26;;;;;;;144.85;125.45;;;11.20;99.90;;;;;;5076788;28;20080;-76
2021/12/13 00:53:57;;;;;;;143.23;123.22;;;11.20;99.90;;;;;;5060084;28;20155;-76
2021/12/13 00:56:48;;;;;;;140.80;124.47;;;11.20;99.90;;;;;;5076473;28;20052;-76
2021/12/13 00:59:24;;;;;;;136.55;122.05;;;11.10;99.90;;;;;;5093979;28;20102;-76
2021/12/13 01:01:58;;;;;;;137.07;122.90;;;11.20;99.90;;;;;;5076643;28;20059;-76
2021/12/13 01:04:47;;;;;;;133.77;120.00;;;11.20;99.90;;;;;;5076489;28;20171;-76
2021/12/13 01:07:56;;;;;;;134.50;121.03;;;11.20;99.90;;;;;;5076412;28;20498;-76
2021/12/13 01:11:00;;;;;;;132.80;119.13;;;11.20;99.90;;;;;;5094657;28;20069;-76
2021/12/13 01:13:32;;;;;;;128.55;115.55;;;11.20;99.90;;;;;;5059438;28;20055;-76
2021/12/13 01:16:11;;;;;;;126.80;114.05;;;11.20;99.90;;;;;;5076477;28;20058;-77
2021/12/13 01:18:59;;;;;;;127.88;115.13;;;11.20;99.90;;;;;;5059335;28;20506;-76
2021/12/13 01:25:46;;;;;;;130.07;117.17;;;11.20;99.90;;;;;;5096349;28;20052;-76
2021/12/13 01:28:23;;;;;;;132.65;119.28;;;11.20;99.90;;;;;;5076292;28;20513;-76
2021/12/13 01:30:56;;;;;;;133.35;120.03;;;11.20;99.90;;;;;;5076307;28;20538;-76
2021/12/13 01:33:26;;;;;;;130.88;118.38;;;11.20;99.90;;;;;;5075998;28;20127;-76
2021/12/13 01:35:58;;;;;;;131.02;117.85;;;11.20;99.90;;;;;;5076005;28;20519;-76
2021/12/13 01:38:33;;;;;;;129.07;116.25;;;11.20;99.90;;;;;;5094399;28;20080;-76
2021/12/13 01:41:07;;;;;;;129.68;116.85;;;11.20;99.90;;;;;;5076046;28;20083;-76
2021/12/13 01:43:36;;;;;;;127.65;115.18;;;11.20;99.90;;;;;;5085157;28;20244;-76
2021/12/13 01:46:03;;;;;;;128.15;115.60;;;11.20;99.90;;;;;;5096258;28;20058;-76
2021/12/13 01:48:34;;;;;;;126.22;113.88;;;11.30;99.90;;;;;;5096100;28;20127;-76
2021/12/13 01:51:08;;;;;;;128.88;116.38;;;11.30;99.90;;;;;;5096638;28;21049;-76
2021/12/13 01:53:40;;;;;;;127.40;114.78;;;11.30;99.90;;;;;;5114616;28;20048;-76
2021/12/13 01:56:34;;;;;;;129.70;117.10;;;11.30;99.90;;;;;;5096004;28;20105;-76
2021/12/13 01:59:04;;;;;;;129.50;116.82;;;11.30;99.90;;;;;;5114288;28;20134;-76
2021/12/13 02:01:32;;;;;;;132.15;119.07;;;11.30;99.90;;;;;;5079470;28;20427;-76
2021/12/13 02:04:01;;;;;;;133.23;120.25;;;11.30;99.90;;;;;;5096382;28;20151;-76
2021/12/13 02:06:39;;;;;;;134.80;121.15;;;11.30;99.90;;;;;;5096274;28;20058;-76
2021/12/13 02:09:11;;;;;;;130.65;117.72;;;11.20;99.90;;;;;;5114545;28;20048;-76
2021/12/13 02:11:38;;;;;;;135.05;121.63;;;11.30;99.90;;;;;;5098026;28;20925;-76
2021/12/13 02:14:12;;;;;;;130.00;117.00;;;11.30;99.90;;;;;;5118259;28;20514;-76
2021/12/13 02:16:58;;;;;;;131.05;118.07;;;11.20;99.90;;;;;;5082485;28;20046;-77
2021/12/13 02:19:32;;;;;;;129.75;116.70;;;11.20;99.90;;;;;;5118235;28;20138;-76
2021/12/13 02:22:31;;;;;;;131.60;118.10;;;11.30;99.90;;;;;;5099529;28;20477;-76
2021/12/13 02:25:03;;;;;;;131.20;118.00;;;11.20;99.90;;;;;;5117922;28;20147;-76
2021/12/13 02:27:33;;;;;;;129.57;116.72;;;11.20;99.90;;;;;;5099122;28;20058;-76
2021/12/13 02:30:11;;;;;;;132.25;119.00;;;11.20;99.90;;;;;;5117836;28;20122;-76
2021/12/13 02:32:41;;;;;;;129.55;116.82;;;11.20;99.90;;;;;;5098770;28;20134;-76
2021/12/13 02:35:10;;;;;;;130.57;117.68;;;11.20;99.90;;;;;;5099083;28;20586;-76
2021/12/13 02:37:41;;;;;;;135.65;121.85;;;11.20;99.90;;;;;;5098976;28;20147;-76
2021/12/13 02:40:10;;;;;;;132.82;119.68;;;11.20;99.90;;;;;;5099203;28;20124;-76
2021/12/13 02:42:38;;;;;;;133.05;119.72;;;11.20;99.90;;;;;;5099076;28;20143;-76
2021/12/13 02:45:14;;;;;;;131.13;117.90;;;11.20;99.90;;;;;;5099147;28;20048;-76
2021/12/13 02:47:49;;;;;;;132.63;119.07;;;11.20;99.90;;;;;;5099019;28;20062;-76
2021/12/13 02:50:21;;;;;;;133.93;120.68;;;11.20;99.90;;;;;;5098653;28;20117;-76
2021/12/13 02:52:51;;;;;;;132.75;119.45;;;11.20;99.90;;;;;;5099067;28;20086;-76
2021/12/13 02:55:24;;;;;;;130.70;117.72;;;11.20;99.90;;;;;;5099096;28;20545;-77
2021/12/13 02:57:53;;;;;;;134.40;121.03;;;11.20;99.90;;;;;;5098685;28;20044;-76
2021/12/13 03:00:26;;;;;;;134.00;120.75;;;11.20;99.90;;;;;;5099096;28;20135;-77
2021/12/13 03:02:56;;;;;;;128.77;115.72;;;11.20;99.90;;;;;;5081753;28;20139;-77
2021/12/13 03:05:27;;;;;;;130.95;118.10;;;11.20;99.90;;;;;;5099060;28;20127;-76
2021/12/13 03:07:59;;;;;;;129.50;116.45;;;11.20;99.90;;;;;;5115782;28;20052;-76
2021/12/13 03:10:30;;;;;;;131.20;118.05;;;11.20;99.90;;;;;;5098609;28;20052;-76
2021/12/13 03:14:05;;;;;;;130.68;117.63;;;11.10;99.90;;;;;;5099999;28;20131;-76
2021/12/13 03:16:40;;;;;;;126.88;114.10;;;11.20;99.90;;;;;;5116906;28;20098;-76
2021/12/13 03:19:10;;;;;;;128.43;115.10;;;11.20;99.90;;;;;;5098478;28;20109;-76
2021/12/13 03:22:03;;;;;;;128.82;115.68;;;11.20;99.90;;;;;;5116833;28;20056;-76
2021/12/13 03:25:04;;;;;;;125.75;113.32;;;11.10;99.90;;;;;;5098521;28;20048;-76
2021/12/13 03:27:50;;;;;;;124.75;112.38;;;11.10;99.90;;;;;;5098108;28;20052;-76
2021/12/13 03:30:21;;;;;;;127.45;114.55;;;11.10;99.90;;;;;;5081459;28;20135;-76
2021/12/13 03:32:55;;;;;;;125.72;113.28;;;11.10;99.90;;;;;;5098262;28;20094;-77
2021/12/13 03:35:26;;;;;;;123.93;111.80;;;11.00;99.90;;;;;;5098471;28;20102;-76
2021/12/13 03:38:00;;;;;;;124.13;112.22;;;11.00;99.90;;;;;;5098107;28;20592;-76
2021/12/13 03:40:33;;;;;;;125.57;113.22;;;11.00;99.90;;;;;;5098345;28;20055;-76
2021/12/13 03:43:04;;;;;;;122.93;110.88;;;11.00;99.90;;;;;;5098354;28;20045;-76
2021/12/13 03:45:37;;;;;;;123.78;111.82;;;11.00;99.90;;;;;;5098209;28;20110;-76
2021/12/13 03:48:08;;;;;;;121.05;108.95;;;10.90;99.90;;;;;;5116451;28;20127;-76
2021/12/13 03:50:38;;;;;;;120.65;108.93;;;10.90;99.90;;;;;;5098166;28;20060;-76
2021/12/13 03:53:10;;;;;;;120.40;108.43;;;10.90;99.90;;;;;;5098053;28;20075;-76
2021/12/13 03:55:40;;;;;;;119.25;107.68;;;10.90;99.90;;;;;;5098073;28;20048;-76
2021/12/13 03:58:10;;;;;;;119.78;108.20;;;10.90;99.90;;;;;;5097379;28;20591;-76
2021/12/13 04:00:42;;;;;;;119.82;108.38;;;10.90;99.90;;;;;;5097979;28;20079;-76
2021/12/13 04:03:12;;;;;;;118.85;107.35;;;10.80;99.90;;;;;;5097899;28;20107;-76
2021/12/13 04:05:41;;;;;;;120.43;108.65;;;10.80;99.90;;;;;;5098135;28;20152;-76
2021/12/13 04:08:11;;;;;;;119.95;108.15;;;10.80;99.90;;;;;;5097414;28;20048;-76
2021/12/13 04:10:44;;;;;;;121.32;109.45;;;10.80;99.90;;;;;;5097706;28;20044;-76
2021/12/13 04:13:15;;;;;;;119.88;108.55;;;10.80;99.90;;;;;;5097713;28;20121;-76
2021/12/13 04:15:57;;;;;;;118.63;107.03;;;10.70;99.90;;;;;;5097658;28;20555;-76
2021/12/13 04:18:41;;;;;;;118.32;106.80;;;10.70;99.90;;;;;;5097365;28;20040;-76
2021/12/13 04:21:11;;;;;;;116.22;105.00;;;10.70;99.90;;;;;;5097570;28;20122;-76
2021/12/13 04:24:28;;;;;;;117.78;106.00;;;10.70;99.90;;;;;;5099069;28;20105;-76
2021/12/13 04:27:01;;;;;;;118.40;107.13;;;10.70;99.90;;;;;;5097541;28;20071;-76
2021/12/13 04:29:31;;;;;;;120.18;108.60;;;10.70;99.90;;;;;;5097113;28;20076;-76
2021/12/13 04:32:10;;;;;;;118.65;107.25;;;10.70;99.90;;;;;;5097487;28;20123;-76
2021/12/13 04:34:41;;;;;;;120.00;108.20;;;10.70;99.90;;;;;;5096248;28;20076;-76
2021/12/13 04:37:13;;;;;;;119.10;107.57;;;10.70;99.90;;;;;;5115388;28;20050;-76
2021/12/13 04:39:42;;;;;;;120.93;109.47;;;10.60;99.90;;;;;;5115494;28;20125;-76
2021/12/13 04:42:14;;;;;;;121.07;109.15;;;10.70;99.90;;;;;;5097567;28;20044;-76
2021/12/13 04:44:50;;;;;;;120.95;109.15;;;10.70;99.90;;;;;;5097348;28;20106;-76
2021/12/13 04:47:18;;;;;;;;;;;10.70;99.90;;;;;;5080953;28;20131;-76
2021/12/13 04:49:48;;;;;;;119.82;108.00;;;10.60;99.90;;;;;;5115479;28;19934;-76
2021/12/13 04:52:19;;;;;;;120.07;108.40;;;10.60;99.90;;;;;;5115368;28;20044;-76
2021/12/13 04:54:52;;;;;;;120.95;108.88;;;10.60;99.90;;;;;;5097250;28;20129;-76
2021/12/13 04:57:22;;;;;;;121.32;109.43;;;10.50;99.90;;;;;;5114982;28;20075;-76
2021/12/13 04:59:50;;;;;;;119.40;107.70;;;10.50;99.90;;;;;;5096924;28;20086;-76
2021/12/13 05:02:17;;;;;;;123.35;111.10;;;10.60;99.90;;;;;;5096777;28;20044;-76
2021/12/13 05:04:44;;;;;;;120.93;109.30;;;10.50;99.90;;;;;;5097074;28;20080;-76
2021/12/13 05:07:11;;;;;;;123.90;112.10;;;10.50;99.90;;;;;;5114925;28;20052;-76
2021/12/13 05:09:39;;;;;;;120.72;109.00;;;10.50;99.90;;;;;;5096734;28;20519;-76
2021/12/13 05:12:13;;;;;;;121.43;109.82;;;10.50;99.90;;;;;;5115224;28;20052;-76
2021/12/13 05:14:44;;;;;;;120.57;108.78;;;10.50;99.90;;;;;;5113469;28;20062;-76
2021/12/13 05:17:14;;;;;;;120.57;109.20;;;10.50;99.90;;;;;;5096294;28;20127;-76
2021/12/13 05:19:45;;;;;;;120.70;109.40;;;10.50;99.90;;;;;;5095628;28;20466;-76
2021/12/13 05:22:15;;;;;;;119.65;107.82;;;10.50;99.90;;;;;;5078729;28;20047;-76
2021/12/13 05:24:45;;;;;;;119.40;107.70;;;10.50;99.90;;;;;;5095668;28;20059;-76
2021/12/13 05:27:16;;;;;;;119.03;107.43;;;10.50;99.90;;;;;;5096078;28;20151;-76
2021/12/13 05:29:48;;;;;;;119.18;107.55;;;10.40;99.90;;;;;;5095725;28;20044;-76
2021/12/13 05:32:18;;;;;;;118.18;106.82;;;10.50;99.90;;;;;;5114269;28;20152;-76
2021/12/13 05:34:49;;;;;;;118.32;107.03;;;10.50;99.90;;;;;;5095704;28;20052;-76
2021/12/13 05:37:18;;;;;;;117.90;106.40;;;10.40;99.90;;;;;;5113730;28;20052;-76
2021/12/13 05:39:59;;;;;;;116.85;105.68;;;10.50;99.90;;;;;;5095486;28;20119;-76
2021/12/13 05:42:37;;;;;;;117.45;106.15;;;10.50;99.90;;;;;;5095604;28;20086;-76
2021/12/13 05:45:07;;;;;;;117.07;105.40;;;10.50;99.90;;;;;;5114219;28;20056;-76
2021/12/13 05:47:35;;;;;;;117.25;106.15;;;10.50;99.90;;;;;;5113612;28;20058;-76
2021/12/13 05:50:05;;;;;;;115.50;104.45;;;10.40;99.90;;;;;;5095329;28;20052;-76
2021/12/13 05:52:37;;;;;;;117.63;106.65;;;10.40;99.90;;;;;;5095559;28;20062;-76
2021/12/13 05:55:09;;;;;;;119.63;108.53;;;10.40;99.90;;;;;;5095654;28;20554;-76
2021/12/13 05:57:42;;;;;;;119.97;108.88;;;10.40;99.90;;;;;;5095517;28;20126;-76
2021/12/13 06:00:17;;;;;;;121.18;109.78;;;10.40;99.90;;;;;;5113923;28;20126;-76
2021/12/13 06:03:06;;;;;;;122.10;110.60;;;10.40;99.90;;;;;;5095099;28;20141;-76
2021/12/13 06:05:36;;;;;;;119.90;108.88;;;10.40;99.90;;;;;;5095162;28;20063;-76
2021/12/13 06:08:07;;;;;;;123.88;112.40;;;10.40;99.90;;;;;;5078164;28;20106;-76
2021/12/13 06:10:41;;;;;;;124.32;112.85;;;10.40;99.90;;;;;;5095629;28;20065;-76
2021/12/13 06:13:12;;;;;;;123.68;112.00;;;10.40;99.90;;;;;;5095267;28;20192;-76
2021/12/13 06:15:41;;;;;;;120.85;109.47;;;10.40;99.90;;;;;;5095316;28;20044;-76
2021/12/13 06:18:16;;;;;;;122.82;111.32;;;10.40;99.90;;;;;;5095021;28;20056;-76
2021/12/13 06:20:49;;;;;;;122.60;110.68;;;10.40;99.90;;;;;;5095005;28;20044;-76
2021/12/13 06:23:19;;;;;;;122.55;111.15;;;10.30;99.90;;;;;;5095211;28;20402;-76
2021/12/13 06:25:49;;;;;;;121.45;109.65;;;10.40;99.90;;;;;;5113583;28;20228;-76
2021/12/13 06:28:22;;;;;;;121.78;110.38;;;10.40;99.90;;;;;;5095171;28;20531;-76
2021/12/13 06:31:03;;;;;;;122.10;110.57;;;10.30;99.90;;;;;;5094982;28;20075;-76
2021/12/13 06:33:46;;;;;;;125.70;113.68;;;10.30;99.90;;;;;;5113608;28;20048;-76
2021/12/13 06:36:13;;;;;;;122.72;111.13;;;10.30;99.90;;;;;;5113249;28;20131;-76
2021/12/13 06:38:47;;;;;;;127.95;115.97;;;10.30;99.90;;;;;;5094511;28;20044;-76
2021/12/13 06:41:19;;;;;;;125.43;113.57;;;10.30;99.90;;;;;;5094709;28;20078;-76
2021/12/13 06:43:51;;;;;;;123.80;111.63;;;10.30;99.90;;;;;;5094659;28;20079;-76
2021/12/13 06:46:36;;;;;;;122.72;110.90;;;10.30;99.90;;;;;;5095011;28;20048;-76
2021/12/13 06:49:09;;;;;;;;;;;10.30;99.90;;;;;;5093467;28;20044;-76
2021/12/13 06:51:48;;;;;;;124.85;112.70;;;10.30;99.90;;;;;;5113571;28;20010;-76
2021/12/13 06:54:18;;;;;;;125.70;113.57;;;10.30;99.90;;;;;;5095105;28;20060;-76
2021/12/13 06:56:55;;;;;;;128.15;115.75;;;10.30;99.90;;;;;;5113962;27;20052;-76
2021/12/13 06:59:23;;;;;;;131.00;118.78;;;10.30;99.90;;;;;;5099227;28;20127;-76
2021/12/13 07:02:07;;;;;;;124.97;112.72;;;10.30;99.90;;;;;;5098935;28;20048;-76
2021/12/13 07:04:50;;;;;;;129.68;117.57;;;10.30;99.90;;;;;;5117459;28;20140;-76
2021/12/13 07:07:18;;;;;;;132.15;119.05;;;10.30;99.90;;;;;;5098921;28;20056;-76
2021/12/13 07:09:52;;;;;;;132.70;120.22;;;10.30;99.90;;;;;;5098684;28;20619;-76
2021/12/13 07:12:20;;;;;;;137.05;123.82;;;10.30;99.90;;;;;;5098999;28;20052;-76
2021/12/13 07:14:48;;;;;;;136.38;123.68;;;10.30;99.90;;;;;;5098378;28;20462;-76
2021/12/13 07:17:22;;;;;;;138.48;125.60;;;10.30;99.90;;;;;;5098198;28;20070;-76
2021/12/13 07:19:52;;;;;;;133.98;121.35;;;10.30;99.90;;;;;;5116692;28;20056;-76
2021/12/13 07:22:23;;;;;;;137.93;124.55;;;10.30;99.90;;;;;;5098246;28;20048;-76
2021/12/13 07:24:53;;;;;;;137.85;124.78;;;10.20;99.90;;;;;;5116360;28;20459;-76
2021/12/13 07:31:05;;;;;;;136.38;122.75;;;10.30;99.90;;;;;;5098261;28;20155;-76
2021/12/13 07:33:42;;;;;;;137.85;124.80;;;10.30;99.90;;;;;;5098260;28;20063;-76
2021/12/13 07:36:19;;;;;;;132.52;119.75;;;10.30;99.90;;;;;;5116001;28;20134;-76
2021/12/13 07:38:51;;;;;;;136.07;123.03;;;10.30;99.90;;;;;;5119729;27;20066;-77
2021/12/13 07:41:19;;;;;;;132.25;119.65;;;10.30;99.90;;;;;;5107713;27;20138;-77
2021/12/13 07:43:47;;;;;;;136.35;123.22;;;10.30;99.90;;;;;;5041263;27;20689;-77
2021/12/13 07:46:30;;;;;;;133.20;120.43;;;10.30;99.90;;;;;;5092797;27;20613;-76
2021/12/13 07:49:01;;;;;;;136.52;123.38;;;10.30;99.90;;;;;;5123018;27;20153;-77
2021/12/13 07:51:31;;;;;;;137.35;124.15;;;10.30;99.90;;;;;;5112320;27;20134;-78
2021/12/13 07:54:05;;;;;;;140.65;127.05;;;10.30;99.90;;;;;;5097296;28;20157;-78
2021/12/13 07:56:46;;;;;;;138.43;124.93;;;10.30;99.90;;;;;;5097945;28;20086;-77
2021/12/13 07:59:16;;;;;;;141.27;127.97;;;10.30;99.90;;;;;;5077312;28;20798;-78
2021/12/13 08:01:47;;;;;;;138.15;124.90;;;10.30;99.90;;;;;;5077784;28;20600;-77
2021/12/13 08:04:21;;;;;;;140.45;127.15;;;10.30;99.90;;;;;;5077456;28;20098;-77
2021/12/13 08:06:52;;;;;;;138.20;125.00;;;10.30;99.90;;;;;;5085775;28;20604;-77
2021/12/13 08:09:24;;;;;;;140.82;127.43;;;10.30;99.90;;;;;;5080097;28;20217;-77
2021/12/13 08:11:54;;;;;;;140.30;126.85;;;10.30;99.90;;;;;;5115139;28;20044;-77
2021/12/13 08:14:30;;;;;;;138.02;124.90;;;10.30;99.90;;;;;;5096554;28;20052;-76
2021/12/13 08:17:09;;;;;;;138.57;125.43;;;10.30;99.90;;;;;;5094068;28;20494;-76
2021/12/13 08:19:38;;;;;;;138.48;125.22;;;10.30;99.90;;;;;;5093462;28;20410;-78
2021/12/13 08:22:12;;;;;;;134.00;121.30;;;10.30;99.90;;;;;;5077466;28;20053;-77
2021/12/13 08:24:43;;;;;;;140.75;126.93;;;10.30;99.90;;;;;;5077437;28;20231;-77
2021/12/13 08:27:16;;;;;;;134.38;121.38;;;10.30;99.90;;;;;;5077450;28;20445;-77
2021/12/13 08:30:09;;;;;;;134.52;121.45;;;10.30;99.90;;;;;;5078715;28;20048;-77
2021/12/13 08:32:37;;;;;;;135.88;123.07;;;10.30;99.90;;;;;;5077431;28;20054;-77
2021/12/13 08:35:08;;;;;;;133.32;120.72;;;10.20;99.90;;;;;;5093785;28;20075;-77
2021/12/13 08:37:38;;;;;;;135.30;122.35;;;10.20;99.90;;;;;;5077804;27;20126;-77
2021/12/13 08:40:11;;;;;;;133.25;120.53;;;10.30;99.90;;;;;;5122085;27;20138;-80
2021/12/13 08:42:40;;;;;;;138.25;125.13;;;10.20;99.90;;;;;;5100314;27;20551;-76
2021/12/13 08:45:16;;;;;;;137.15;124.15;;;10.20;99.90;;;;;;5105792;27;20130;-76
2021/12/13 08:47:47;;;;;;;135.82;122.80;;;10.20;99.90;;;;;;5128694;27;20105;-76
2021/12/13 08:50:20;;;;;;;136.75;123.80;;;10.30;99.90;;;;;;5112350;27;20485;-76
2021/12/13 08:52:53;;;;;;;135.18;122.32;;;10.30;99.90;;;;;;5129808;27;20478;-75
2021/12/13 08:55:27;;;;;;;133.05;120.45;;;10.30;99.90;;;;;;5087557;28;20044;-75
2021/12/13 08:57:58;;;;;;;134.82;121.97;;;10.30;99.90;;;;;;5116660;27;20058;-76
2021/12/13 09:00:52;;;;;;;133.93;121.22;;;10.30;99.90;;;;;;5096714;28;20802;-76
2021/12/13 09:03:30;;;;;;;135.07;122.38;;;10.30;99.90;;;;;;5114489;28;20051;-76
2021/12/13 09:06:08;;;;;;;133.77;120.78;;;10.30;99.90;;;;;;5095494;28;20044;-75
2021/12/13 09:08:40;;;;;;;132.68;119.70;;;10.30;99.90;;;;;;5090619;28;20062;-75
2021/12/13 09:11:25;;;;;;;135.20;122.35;;;10.30;99.90;;;;;;5096601;28;20140;-75
2021/12/13 09:13:58;;;;;;;133.52;121.05;;;10.30;99.90;;;;;;5115912;27;20518;-75
2021/12/13 09:16:29;;;;;;;132.10;119.05;;;10.30;99.90;;;;;;5096379;28;20062;-75
2021/12/13 09:19:10;;;;;;;134.43;121.75;;;10.30;99.90;;;;;;5108993;28;20048;-76
2021/12/13 09:21:49;;;;;;;134.13;121.22;;;10.30;99.90;;;;;;5094578;28;20083;-75
2021/12/13 09:24:26;;;;;;;132.48;119.88;;;10.30;99.90;;;;;;5092154;27;20851;-75
2021/12/13 09:26:57;;;;;;;136.05;122.93;;;10.30;99.90;;;;;;5104316;27;20151;-75
2021/12/13 09:29:25;;;;;;;133.93;121.18;;;10.30;99.90;;;;;;5116508;27;20052;-74
2021/12/13 09:31:53;;;;;;;132.25;119.50;;;10.30;99.90;;;;;;5094622;28;20048;-75
2021/12/13 09:34:22;;;;;;;131.88;119.32;;;10.30;99.90;;;;;;5096563;28;20468;-76
2021/12/13 09:36:52;;;;;;;129.07;116.85;;;10.30;99.90;;;;;;5092547;28;20526;-75
2021/12/13 09:39:25;;;;;;;131.20;118.70;;;10.30;99.90;;;;;;5112535;28;20513;-75
2021/12/13 09:41:58;;;;;;;132.27;119.53;;;10.40;99.90;;;;;;5095670;28;20067;-76
2021/12/13 09:44:31;;;;;;;134.60;121.55;;;10.40;99.90;;;;;;5094913;28;20058;-75
2021/12/13 09:47:04;;;;;;;134.10;121.05;;;10.40;99.90;;;;;;5108794;28;20517;-76
2021/12/13 09:49:34;;;;;;;132.50;119.95;;;10.40;99.90;;;;;;5095643;28;21045;-75
2021/12/13 09:52:08;;;;;;;128.73;116.25;;;10.40;99.90;;;;;;5096331;28;20058;-76
2021/12/13 09:54:40;;;;;;;130.07;117.53;;;10.40;99.90;;;;;;5098550;28;20136;-76
2021/12/13 09:57:11;;;;;;;132.70;119.90;;;10.50;99.90;;;;;;5075279;28;20040;-75
2021/12/13 09:59:44;;;;;;;132.00;119.10;;;10.40;99.90;;;;;;5078930;28;20139;-75
2021/12/13 10:02:19;;;;;;;132.63;119.75;;;10.40;99.90;;;;;;5096106;28;20059;-75
2021/12/13 10:04:49;;;;;;;132.77;119.97;;;10.40;99.90;;;;;;5115189;27;20052;-75
2021/12/13 10:07:21;;;;;;;133.32;120.22;;;10.50;99.90;;;;;;5087616;27;20079;-75
2021/12/13 10:09:51;;;;;;;129.98;117.15;;;10.50;99.90;;;;;;5101192;27;20472;-75
2021/12/13 10:12:22;;;;;;;135.70;123.03;;;10.50;99.90;;;;;;5100686;28;20075;-76
2021/12/13 10:14:52;;;;;;;135.10;122.18;;;10.50;99.80;;;;;;5118464;27;20496;-76
2021/12/13 10:17:24;;;;;;;135.57;122.88;;;10.50;99.80;;;;;;5117502;27;20493;-76
2021/12/13 10:19:54;;;;;;;132.13;119.55;;;10.50;99.70;;;;;;5114859;27;20075;-78
2021/12/13 10:22:26;;;;;;;131.88;119.38;;;10.50;99.70;;;;;;5131080;27;20179;-76
2021/12/13 10:24:57;;;;;;;134.13;121.43;;;10.50;99.60;;;;;;5117362;27;20794;-75
2021/12/13 10:27:25;;;;;;;132.70;119.95;;;10.50;99.60;;;;;;5110800;27;20080;-76
2021/12/13 10:29:56;;;;;;;131.77;119.18;;;10.50;99.60;;;;;;5091701;27;20448;-79
2021/12/13 10:32:27;;;;;;;130.75;117.97;;;10.50;99.80;;;;;;5105224;28;20138;-76
2021/12/13 10:34:57;;;;;;;132.00;119.03;;;10.50;99.70;;;;;;5107092;27;20048;-76
2021/12/13 10:37:29;;;;;;;129.60;117.15;;;10.50;99.70;;;;;;5103474;28;20087;-77
2021/12/13 10:39:59;;;;;;;130.20;117.60;;;10.50;99.80;;;;;;5120959;27;20054;-76
2021/12/13 10:42:32;;;;;;;131.55;118.82;;;10.50;99.70;;;;;;5101831;27;20048;-77
2021/12/13 10:44:59;;;;;;;129.20;116.80;;;10.60;99.70;;;;;;5116676;28;20048;-75
2021/12/13 10:47:30;;;;;;;129.93;116.75;;;10.60;99.70;;;;;;5117171;28;20048;-76
2021/12/13 10:49:58;;;;;;;127.07;114.88;;;10.60;99.60;;;;;;5096693;28;20060;-75
2021/12/13 10:52:31;;;;;;;128.05;115.30;;;10.60;99.70;;;;;;5098459;28;20134;-77
2021/12/13 10:55:01;;;;;;;130.13;117.40;;;10.60;99.80;;;;;;5101280;28;20107;-74
2021/12/13 10:57:33;;;;;;;126.72;114.53;;;10.60;99.70;;;;;;5098263;28;20051;-76
2021/12/13 11:00:01;;;;;;;127.95;115.68;;;10.50;99.70;;;;;;5098182;28;20139;-76
2021/12/13 11:02:34;;;;;;;128.30;115.40;;;10.50;99.70;;;;;;5118035;27;20047;-76
2021/12/13 11:05:06;;;;;;;130.65;117.80;;;10.60;99.60;;;;;;5099032;28;20474;-76
2021/12/13 11:07:34;;;;;;;128.55;115.93;;;10.60;99.70;;;;;;5118862;27;20048;-77
2021/12/13 11:10:06;;;;;;;128.25;115.88;;;10.60;99.60;;;;;;5100651;28;20114;-76
2021/12/13 11:12:37;;;;;;;129.43;117.05;;;10.60;99.60;;;;;;5100004;28;20056;-76
2021/12/13 11:15:07;;;;;;;127.28;114.70;;;10.60;99.60;;;;;;5096782;28;20573;-77
2021/12/13 11:17:36;;;;;;;129.60;116.82;;;10.60;99.60;;;;;;5095505;28;20090;-76
2021/12/13 11:20:10;;;;;;;130.35;118.22;;;10.60;99.60;;;;;;5121089;27;20090;-75
2021/12/13 11:22:39;;;;;;;131.63;119.43;;;10.60;99.70;;;;;;5097028;28;20051;-76
2021/12/13 11:25:11;;;;;;;127.53;115.10;;;10.60;99.60;;;;;;5116736;28;20125;-76
2021/12/13 11:27:39;;;;;;;130.32;118.10;;;10.60;99.60;;;;;;5104121;28;20072;-79
2021/12/13 11:30:10;;;;;;;132.02;119.50;;;10.60;99.60;;;;;;5104186;28;20134;-77
2021/12/13 11:33:16;;;;;;;129.38;117.10;;;10.60;99.60;;;;;;5098427;28;20139;-78
2021/12/13 11:36:26;;;;;;;129.27;116.82;;;10.70;99.50;;;;;;5119883;27;20049;-76
2021/12/13 11:39:44;;;;;;;127.53;115.53;;;10.70;99.40;;;;;;5126356;27;20044;-76
2021/12/13 11:42:29;;;;;;;131.85;119.40;;;10.70;99.40;;;;;;5094565;28;20131;-79
2021/12/13 11:45:25;;;;;;;129.43;117.07;;;10.70;99.30;;;;;;5095718;27;20151;-77
2021/12/13 11:48:12;;;;;;;128.18;115.90;;;10.70;99.30;;;;;;5063667;27;20058;-75
2021/12/13 11:51:17;;;;;;;129.25;117.05;;;10.70;99.40;;;;;;5107730;28;20055;-78
2021/12/13 11:54:07;;;;;;;131.65;119.35;;;10.70;99.50;;;;;;5076448;28;20563;-77
2021/12/13 11:57:11;;;;;;;129.88;117.47;;;10.70;99.40;;;;;;5099632;27;20047;-76
2021/12/13 12:00:09;;;;;;;131.20;118.75;;;10.70;99.20;;;;;;5099344;28;20060;-76
2021/12/13 12:03:01;;;;;;;127.65;115.45;;;10.70;99.20;;;;;;5103506;27;20469;-76
2021/12/13 12:06:19;;;;;;;130.60;118.40;;;10.70;99.30;;;;;;5122719;27;20126;-77
2021/12/13 12:09:14;;;;;;;128.38;115.78;;;10.70;99.30;;;;;;5040746;27;20058;-76
2021/12/13 12:12:03;;;;;;;132.67;120.27;;;10.70;99.20;;;;;;5101767;27;20134;-76
2021/12/13 12:14:33;;;;;;;129.30;116.70;;;10.70;99.30;;;;;;5136215;27;20254;-77
2021/12/13 12:17:04;;;;;;;128.98;116.93;;;10.70;99.40;;;;;;5130701;27;20059;-78
2021/12/13 12:19:34;;;;;;;126.07;113.45;;;10.70;99.40;;;;;;5100672;27;20501;-77
2021/12/13 12:22:04;;;;;;;131.20;118.90;;;10.70;99.30;;;;;;5130730;27;20123;-76
2021/12/13 12:24:33;;;;;;;128.45;116.15;;;10.70;99.30;;;;;;5135397;27;20131;-76
2021/12/13 12:27:04;;;;;;;128.80;116.65;;;10.70;99.30;;;;;;5116951;27;20126;-76
2021/12/13 12:29:36;;;;;;;126.35;114.10;;;10.70;99.20;;;;;;5117813;27;20067;-79
2021/12/13 12:32:09;;;;;;;130.82;118.25;;;10.70;99.30;;;;;;5117607;27;20075;-78
2021/12/13 12:34:48;;;;;;;125.80;113.80;;;10.70;99.30;;;;;;5121171;27;20052;-77
2021/12/13 12:38:16;;;;;;;128.48;116.53;;;10.70;99.40;;;;;;5125736;27;21072;-79
2021/12/13 12:40:50;;;;;;;127.55;114.90;;;10.70;99.30;;;;;;5126583;27;20534;-77
2021/12/13 12:43:20;;;;;;;126.78;114.72;;;10.70;99.30;;;;;;5103365;28;20146;-78
2021/12/13 12:45:51;;;;;;;125.90;113.70;;;10.70;99.50;;;;;;5079181;28;20092;-78
2021/12/13 12:48:26;;;;;;;126.00;113.80;;;10.80;99.30;;;;;;5078865;28;20048;-78
2021/12/13 12:51:06;;;;;;;125.50;113.55;;;10.70;99.30;;;;;;5081818;28;20106;-77
2021/12/13 12:53:42;;;;;;;126.68;114.60;;;10.80;99.40;;;;;;5079448;28;20110;-77